• Join FlightAware (Why Join?)
  • Login
  • US Flag 
11:04PM EDT


 

Airport Tracker/Info


-or-


 

Live Flight TrackerFlight Track Log ✈ AAY817 ✈ 05-May-2014 ✈ KHTS - KPIE

Flight Track Log - Related Links

Times and Time Zones

All times are in EDT time to prevent confusion due to time zone crossing. See the AAY817 flight status page for this flight to view local times or setup timezone preferences in your user account.

Time Position Orientation Groundspeed Altitude Reporting Facility
EDT Latitude Longitude Course Direction KTS MPH feet Rate Location/Type
03:51PM 38.3306 -82.5081 143° Southeast 175 201 3,100  Level Indianapolis Center
03:52PM 38.2825 -82.4628 144° Southeast 225 259 4,600 1,980 Climbing Indianapolis Center
03:53PM 38.2203 -82.4006 142° Southeast 273 314 7,300 2,760 Climbing Indianapolis Center
03:54PM 38.1261 -82.3572 160° South 300 345 10,400 2,340 Climbing Indianapolis Center
03:55PM 38.0378 -82.3606 182° South 329 379 12,200 2,040 Climbing Indianapolis Center
03:56PM 37.8124 -82.0175 143° Southeast  Level FlightAware Approximate
03:56PM 37.9358 -82.3636 181° South 353 406 14,700  Level Indianapolis Center
03:57PM 37.8106 -82.3672 181° South 378 435 17,100 2,100 Climbing Indianapolis Center
03:58PM 37.6944 -82.3700 181° South 405 466 19,100 2,100 Climbing Indianapolis Center
03:59PM 37.5764 -82.3722 181° South 418 481 21,500 1,980 Climbing Indianapolis Center
04:00PM 37.4572 -82.3761 181° South 420 483 23,200 1,680 Climbing Indianapolis Center
04:01PM 37.3350 -82.3786 181° South 431 496 25,000 1,500 Climbing Indianapolis Center
04:02PM 37.2097 -82.3828 182° South 441 507 26,400 1,380 Climbing Indianapolis Center
04:03PM 37.0583 -82.3867 181° South 456 525 27,900 720 Climbing Indianapolis Center
04:04PM 36.9267 -82.3894 181° South 463 533 28,000 420 Climbing Indianapolis Center
04:05PM 36.7950 -82.3931 181° South 464 534 28,800 900 Climbing Indianapolis Center
04:06PM 36.6603 -82.3969 181° South 471 542 29,900 1,140 Climbing Indianapolis Center
04:07PM 36.5233 -82.4011 181° South 481 554 31,200 1,380 Climbing Indianapolis Center
04:08PM 36.3883 -82.4053 181° South 482 555 32,800 1,500 Climbing Indianapolis Center
04:09PM 36.2336 -82.4092 181° South 478 550 34,300 1,140 Climbing Indianapolis Center
04:10PM 36.1011 -82.4117 181° South 475 547 35,200 660 Climbing Indianapolis Center
04:15PM 35.2936 -82.4339 181° South 481 554 38,000 480 Climbing FlightAware ADS-B (KDZJ)
04:16PM 35.1389 -82.4380 181° South 481 554 38,000  Level FlightAware ADS-B (KDZJ)
04:17PM 34.9825 -82.4421 181° South 470 541 38,000  Level FlightAware ADS-B (KDZJ)
04:18PM 34.8790 -82.4447 181° South 469 540 38,000  Level FlightAware ADS-B (KDZJ)
04:19PM 34.7816 -82.4472 181° South 479 551 38,000  Level FlightAware ADS-B (KDZJ)
04:19PM 34.6953 -82.4495 181° South 480 552 38,000  Level FlightAware ADS-B (KDZJ)
04:20PM 34.5733 -82.4527 181° South 480 552 38,000  Level FlightAware ADS-B (KDZJ)
04:21PM 34.4758 -82.4553 181° South 484 557 38,000  Level FlightAware ADS-B (KDZJ)
04:22PM 34.5061 -82.4558 181° South 476 548 38,000  Level Atlanta Center
04:23PM 34.3747 -82.4608 182° South 476 548 38,000  Level Atlanta Center
04:24PM 34.2369 -82.4633 181° South 476 548 38,000  Level Atlanta Center
04:25PM 34.0994 -82.4658 181° South 481 554 38,000  Level Atlanta Center
04:26PM 33.9678 -82.4683 181° South 482 555 38,000  Level Atlanta Center
04:27PM 33.8364 -82.4733 182° South 477 549 38,000  Level Atlanta Center
04:28PM 33.6925 -82.4758 181° South 471 542 38,000  Level Atlanta Center
04:29PM 33.5631 -82.4808 182° South 471 542 38,000  Level Atlanta Center
04:30PM 33.4275 -82.4831 181° South 476 548 38,000  Level Atlanta Center
04:31PM 33.3128 -82.4853 181° South 471 542 38,000  Level Atlanta Center
04:32PM 33.1811 -82.4900 182° South 471 542 38,000  Level Atlanta Center
04:33PM 33.0497 -82.4925 181° South 477 549 38,000  Level Atlanta Center
04:37PM 32.5458 -82.4983 181° South 457 526 38,000  Level Jacksonville Center
04:38PM 32.4019 -82.5086 183° South 463 533 38,000  Level Jacksonville Center
04:39PM 32.2703 -82.5069 179° South 469 540 38,000  Level Jacksonville Center
04:40PM 32.1408 -82.5122 182° South 474 545 38,000  Level Jacksonville Center
04:41PM 32.0114 -82.5153 181° South 474 545 38,000  Level Jacksonville Center
04:42PM 31.8778 -82.5208 182° South 479 551 38,000  Level Jacksonville Center
04:43PM 31.7483 -82.5236 181° South 479 551 38,000  Level Jacksonville Center
04:44PM 31.6189 -82.5242 180° South 474 545 38,000  Level Jacksonville Center
04:45PM 31.4894 -82.5272 181° South 474 545 38,000  Level Jacksonville Center
04:46PM 31.3581 -82.5300 181° South 474 545 38,000  Level Jacksonville Center
04:47PM 31.2389 -82.5403 184° South 474 545 38,000  Level Jacksonville Center
04:52PM 30.5561 -82.5514 181° South 449 517 38,000  Level FlightAware ADS-B (KMCO)
04:53PM 30.4653 -82.5445 170° South 456 525 38,000  Level FlightAware ADS-B (KMCO)
04:55PM 30.2887 -82.5066 170° South 459 528 38,000 -480 Level FlightAware ADS-B (KMCO)
04:55PM 30.1985 -82.4875 170° South 457 526 37,000 -1,860 Descending FlightAware ADS-B (KMCO)
04:56PM 30.1081 -82.4683 170° South 466 536 35,500 -2,400 Descending FlightAware ADS-B (KMCO)
04:57PM 30.0121 -82.4478 170° South 471 542 33,600 -2,460 Descending FlightAware ADS-B (KMCO)
04:58PM 29.9248 -82.4294 170° South 462 532 31,900 -1,980 Descending FlightAware ADS-B (KMCO)
04:58PM 29.8384 -82.4112 170° South 460 529 30,900 -1,620 Descending FlightAware ADS-B (KMCO)
04:59PM 29.7079 -82.3837 170° South 448 516 29,200 -1,860 Descending FlightAware ADS-B (KMCO)
05:01PM 29.5300 -82.3514 174° South 426 490 26,200 -1,860 Descending FlightAware ADS-B (KMCO)
05:01PM 29.4524 -82.3421 174° South 419 482 25,200 -1,620 Descending FlightAware ADS-B (KMCO)
05:02PM 29.3884 -82.3343 174° South 417 480 24,200 -2,460 Descending FlightAware ADS-B (KMCO)
05:03PM 29.2805 -82.3214 174° South 419 482 21,700 -2,460 Descending FlightAware ADS-B (KMCO)
05:04PM 29.1830 -82.3098 174° South 400 460 20,100 -1,920 Descending FlightAware ADS-B (KMCO)
05:05PM 29.0852 -82.2982 174° South 385 443 18,500 -1,800 Descending FlightAware ADS-B (KMCO)
05:05PM 29.0101 -82.2894 174° South 371 427 17,200 -1,620 Descending FlightAware ADS-B (KMCO)
05:06PM 28.9406 -82.2811 174° South 363 418 16,100 -1,620 Descending FlightAware ADS-B (KMCO)
05:07PM 28.8715 -82.2728 174° South 357 411 15,000 -1,680 Descending FlightAware ADS-B (KMCO)
05:07PM 28.8135 -82.2660 174° South 351 404 14,100 -1,140 Descending FlightAware ADS-B (KMCO)
05:09PM 28.6935 -82.2568 180° South 337 388 12,900 -1,200 Descending FlightAware ADS-B (KMCO)
05:10PM 28.5721 -82.2710 220° Southwest 314 361 11,000 -1,680 Descending FlightAware ADS-B (KMCO)
05:10PM 28.5623 -82.2839 250° West 322 371 10,300 -1,140 Descending FlightAware ADS-B (KMCO)
05:11PM 28.5424 -82.3598 257° West 324 373 9,900 -360 Descending FlightAware ADS-B (KMCO)
05:11PM 28.5351 -82.3935 256° West 326 375 9,900  Level FlightAware ADS-B (KMCO)
05:13PM 28.4945 -82.5758 256° West 326 375 9,900 -180 Level FlightAware ADS-B (KMCO)
05:14PM 28.4500 -82.6667 256° West 298 343 9,400 -660 Descending Tampa TRACON
05:15PM 28.3667 -82.6667 180° South 285 328 8,500 -900 Descending Tampa TRACON
05:16PM 28.2833 -82.6833 190° South 281 323 7,700 -780 Descending Tampa TRACON
05:17PM 28.2167 -82.7333 213° Southwest 284 327 6,900 -900 Descending Tampa TRACON
05:18PM 28.1833 -82.8000 240° Southwest 276 318 6,000 -900 Descending Tampa TRACON
05:19PM 28.1167 -82.8500 213° Southwest 273 314 5,200 -660 Descending Tampa TRACON
05:20PM 28.0500 -82.8333 168° South 265 305 4,700 -600 Descending Tampa TRACON
05:21PM 27.9667 -82.8167 170° South 268 308 4,100 -600 Descending Tampa TRACON
05:22PM 27.9000 -82.8000 168° South 240 276 3,500 -600 Descending Tampa TRACON
05:23PM 27.8500 -82.7667 149° Southeast 200 230 2,900 -600 Descending Tampa TRACON
05:24PM 27.8167 -82.7167 127° Southeast 177 204 2,300 -900 Descending Tampa TRACON
05:25PM 27.8500 -82.6833 41° Northeast 161 185 1,200 -960 Descending Tampa TRACON
05:26PM 27.8833 -82.6833 360° North 126 145 400 -840 Descending Tampa TRACON
05:28PM 27.9000 -82.6833 310° West  Level FlightAware Approximate
05:35PM 27.9100 -82.6875 310° West  Level Estimated
05:36PM 27.9100 -82.6875 310° West  Level Estimated
05:37PM 27.9100 -82.6875 310° West  Level Estimated